Onweer radar Meer informatie blitzortung!


Regen radar Meer informatie rain snow radar



METAR rapporten vliegvelden

   
EHRD - Rotterdam
Gewijzigd: 21-11-2019 07:25
Nevel, Bewolking  
Nevel, Bewolking  
   Wind: Oosten 10 km/h
Wind: Oosten 10 km/h
Temperatuur: 2°C
Voelt als: -2°C
Dauwpunt: 1°C
Vochtigheid: 93%
Barometer: 1010 hPa
Bewolking: Overcast
Zicht: 5 km
Bewolking: Bewolking 800 ft
EHRD 210625Z AUTO 10010KT 070V130 5000 BR OVC008 02/01 Q1010 NOSIG
EBAW - Antwerpen
Gewijzigd: 21-11-2019 07:20
Nevel, Grotendeels bewolkt  
Nevel, Grotendeels bewolkt  
   Wind: Oosten 6 km/h
Wind: Oosten 6 km/h
Temperatuur: -1°C
Voelt als: -5°C
Dauwpunt: -2°C
Vochtigheid: 93%
Barometer: 1009 hPa
Bewolking: Mostly Cloudy
Zicht: 3 km
Bewolking: Licht bewolkt 300 ft,
Grotendeels bewolkt 400 ft
EBAW 210620Z 08006KT 3000 BR FEW003 BKN004 M01/M02 Q1009 NOSIG
EHAM - Amsterdam
Gewijzigd: 21-11-2019 07:25
Grotendeels bewolkt  
Grotendeels bewolkt  
   Wind: Oosten 11 km/h
Wind: Oosten 11 km/h
Temperatuur: 2°C
Voelt als: -3°C
Dauwpunt: 0°C
Vochtigheid: 87%
Barometer: 1010 hPa
Bewolking: Mostly Cloudy
Zicht: 8 km
Bewolking: Grotendeels bewolkt 900 ft
EHAM 210625Z 08011KT 050V110 8000 BKN009 02/00 Q1010 TEMPO 6000 BKN012
EHEH - Eindhoven
Gewijzigd: 21-11-2019 07:25
Nevel, Bewolking  
Nevel, Bewolking  
   Wind: Oosten 7 km/h
Wind: Oosten 7 km/h
Temperatuur: 1°C
Voelt als: -3°C
Dauwpunt: 0°C
Vochtigheid: 93%
Barometer: 1010 hPa
Bewolking: Overcast
Zicht: 3 km
Bewolking: Grotendeels bewolkt 400 ft,
Bewolking 500 ft
EHEH 210625Z AUTO 09007KT 060V120 3000 R03/3000N BR BKN004 OVC005 01/00 Q1010 YLO 09008KT 2500 BR BKN003 OVC005
  

Script ontwikkeld door  Saratoga-weather.org Aangepast voor de template door  Weerstation Leuven

U vindt ons ook hier:

Het Weer Aktueel

Apparatuur in gebruik:

Weerstation
Davis VP2

Weerprogramma
Cumulus

Weercomputer
Pipo X9 with Windows 10

Davis VP2

Cumulus

Pipo X9 with Windows 10